createdAt,value
2018-07-05T00:02:30.220Z,99.90
2018-07-05T00:07:45.847Z,99.90
2018-07-05T00:13:00.845Z,99.90
2018-07-05T00:18:16.859Z,99.90
2018-07-05T00:23:31.499Z,99.90
2018-07-05T00:28:46.376Z,99.90
2018-07-05T00:34:03.278Z,99.90
2018-07-05T00:39:18.440Z,99.90
2018-07-05T00:44:33.179Z,99.90
2018-07-05T00:54:58.078Z,99.90
2018-07-05T01:00:13.184Z,99.90
2018-07-05T01:05:28.085Z,99.90
2018-07-05T01:10:42.814Z,99.90
2018-07-05T01:15:57.902Z,99.90
2018-07-05T01:21:12.726Z,99.90
2018-07-05T01:26:28.467Z,99.90
2018-07-05T01:31:43.284Z,99.90
2018-07-05T01:36:58.072Z,99.90
2018-07-05T01:42:16.595Z,99.90
2018-07-05T01:47:31.424Z,99.90
2018-07-05T01:52:46.356Z,99.90
2018-07-05T01:58:03.910Z,99.90
2018-07-05T02:03:19.013Z,99.90
2018-07-05T02:08:33.884Z,99.90
2018-07-05T02:13:48.791Z,99.90
2018-07-05T02:19:03.740Z,99.90
2018-07-05T02:24:18.460Z,99.90
2018-07-05T02:29:33.291Z,99.90
2018-07-05T02:34:48.521Z,99.90
2018-07-05T02:40:03.206Z,99.90
2018-07-05T02:45:17.943Z,99.90
2018-07-05T02:50:32.719Z,99.90
2018-07-05T03:01:00.306Z,99.90
2018-07-05T03:06:16.725Z,99.90
2018-07-05T03:11:31.420Z,99.90
2018-07-05T03:16:45.947Z,99.90
2018-07-05T03:22:01.996Z,99.90
2018-07-05T03:27:17.325Z,99.90
2018-07-05T03:32:32.282Z,99.90
2018-07-05T03:37:51.516Z,99.90
2018-07-05T03:43:08.074Z,99.90
2018-07-05T03:48:23.893Z,99.90
2018-07-05T03:53:43.494Z,99.90
2018-07-05T03:59:01.337Z,99.90
2018-07-05T04:04:21.179Z,99.90
2018-07-05T04:09:37.016Z,99.90
2018-07-05T04:14:51.792Z,99.90
2018-07-05T04:20:06.768Z,99.90
2018-07-05T04:25:21.525Z,99.90
2018-07-05T04:30:36.488Z,99.90
2018-07-05T04:35:51.124Z,99.90
2018-07-05T04:41:05.943Z,99.90
2018-07-05T04:46:20.689Z,99.90
2018-07-05T04:51:37.035Z,99.90
2018-07-05T04:56:53.243Z,99.90
2018-07-05T05:02:11.103Z,99.90
2018-07-05T05:07:30.494Z,99.90
2018-07-05T05:12:45.417Z,99.90
2018-07-05T05:18:02.322Z,99.90
2018-07-05T05:23:17.337Z,99.90
2018-07-05T05:28:32.322Z,99.90
2018-07-05T05:33:47.182Z,99.90
2018-07-05T05:39:02.111Z,99.90
2018-07-05T05:44:16.705Z,99.90
2018-07-05T05:49:31.622Z,99.90
2018-07-05T05:54:50.144Z,99.90
2018-07-05T06:00:05.029Z,99.90
2018-07-05T06:05:19.956Z,99.90
2018-07-05T06:10:34.764Z,99.90
2018-07-05T06:15:49.544Z,99.90
2018-07-05T06:21:04.270Z,99.90
2018-07-05T06:26:19.080Z,99.90
2018-07-05T06:31:33.957Z,99.90
2018-07-05T06:36:48.812Z,99.90
2018-07-05T06:42:03.825Z,99.90
2018-07-05T06:47:18.615Z,99.90
2018-07-05T06:52:33.448Z,99.90
2018-07-05T06:57:48.244Z,99.90
2018-07-05T07:03:02.916Z,99.90
2018-07-05T07:08:17.806Z,99.90
2018-07-05T07:13:33.657Z,99.90
2018-07-05T07:18:49.264Z,99.90
2018-07-05T07:24:06.237Z,99.90
2018-07-05T07:29:21.018Z,99.90
2018-07-05T07:34:35.712Z,99.90
2018-07-05T07:39:50.431Z,99.90
2018-07-05T07:44:52.768Z,99.90
2018-07-05T07:49:55.101Z,99.90
2018-07-05T07:54:57.418Z,99.90
2018-07-05T07:59:59.814Z,99.90
2018-07-05T08:05:02.127Z,99.90
2018-07-05T08:10:04.542Z,99.90
2018-07-05T08:15:07.864Z,99.90
2018-07-05T08:20:10.208Z,99.90
2018-07-05T08:25:12.661Z,99.90
2018-07-05T08:30:15.129Z,99.90
2018-07-05T08:35:18.513Z,99.90
2018-07-05T08:40:21.102Z,99.90
2018-07-05T08:45:23.483Z,99.60
2018-07-05T08:50:25.967Z,99.90
2018-07-05T08:55:28.416Z,99.90
2018-07-05T09:00:31.277Z,99.90
2018-07-05T09:05:33.701Z,99.90
2018-07-05T09:10:36.087Z,99.60
2018-07-05T09:15:38.422Z,99.90
2018-07-05T09:20:42.213Z,98.40
2018-07-05T09:25:44.585Z,99.20
2018-07-05T09:30:47.023Z,98.30
2018-07-05T09:35:52.962Z,97.80
2018-07-05T09:40:55.301Z,97.40
2018-07-05T09:45:57.646Z,96.70
2018-07-05T09:51:00.038Z,95.50
2018-07-05T09:56:04.348Z,95.50
2018-07-05T10:01:09.293Z,95.90
2018-07-05T10:06:11.595Z,95.20
2018-07-05T10:11:13.964Z,95.60
2018-07-05T10:16:16.336Z,94.40
2018-07-05T10:21:29.343Z,94.60
2018-07-05T10:26:31.912Z,95.20
2018-07-05T10:42:45.744Z,94.40
2018-07-05T10:59:07.217Z,91.50
2018-07-05T11:04:22.079Z,92.80
2018-07-05T11:09:37.611Z,93.30
2018-07-05T11:14:56.203Z,93.60
2018-07-05T11:20:11.079Z,93.10
2018-07-05T11:25:27.307Z,92.80
2018-07-05T11:30:42.225Z,91.70
2018-07-05T11:35:56.876Z,90.70
2018-07-05T11:41:12.218Z,90.20
2018-07-05T11:46:27.010Z,90.00
2018-07-05T11:51:41.640Z,89.70
2018-07-05T11:56:56.488Z,91.20
2018-07-05T12:02:11.287Z,91.70
2018-07-05T12:07:25.900Z,92.00
2018-07-05T12:12:40.733Z,92.00
2018-07-05T12:17:56.904Z,92.90
2018-07-05T12:23:11.834Z,93.30
2018-07-05T12:28:26.862Z,93.90
2018-07-05T12:33:41.702Z,94.50
2018-07-05T12:38:56.526Z,94.70
2018-07-05T12:44:11.356Z,96.40
2018-07-05T12:49:26.289Z,96.00
2018-07-05T12:54:42.395Z,96.90
2018-07-05T12:59:57.260Z,95.00
2018-07-05T13:05:12.233Z,95.30
2018-07-05T13:10:27.465Z,94.70
2018-07-05T13:15:44.316Z,95.10
2018-07-05T13:20:59.348Z,94.60
2018-07-05T13:26:14.915Z,94.10
2018-07-05T13:31:34.100Z,95.30
2018-07-05T13:36:49.068Z,95.40
2018-07-05T13:47:32.290Z,94.20
2018-07-05T13:52:46.979Z,93.80
2018-07-05T13:58:01.850Z,94.40
2018-07-05T14:03:16.974Z,95.50
2018-07-05T14:08:32.005Z,96.50
2018-07-05T14:13:47.055Z,95.80
2018-07-05T14:19:05.112Z,96.50
2018-07-05T14:24:25.767Z,96.20
2018-07-05T14:35:14.921Z,96.70
2018-07-05T14:40:30.929Z,95.80
2018-07-05T14:45:47.123Z,95.40
2018-07-05T14:51:01.882Z,95.40
2018-07-05T14:56:17.713Z,95.00
2018-07-05T15:01:32.714Z,94.80
2018-07-05T15:06:47.579Z,95.00
2018-07-05T15:12:02.239Z,95.40
2018-07-05T15:17:18.185Z,96.70
2018-07-05T15:22:33.908Z,97.20
2018-07-05T15:27:48.610Z,97.50
2018-07-05T15:33:03.231Z,97.70
2018-07-05T15:38:18.028Z,98.40
2018-07-05T15:43:35.405Z,98.30
2018-07-05T15:48:50.079Z,99.10
2018-07-05T15:54:04.977Z,99.90
2018-07-05T15:59:19.722Z,99.90
2018-07-05T16:04:34.466Z,99.90
2018-07-05T16:09:50.352Z,99.90
2018-07-05T16:15:05.125Z,99.90
2018-07-05T16:20:20.951Z,99.90
2018-07-05T16:25:35.738Z,99.90
2018-07-05T16:30:51.370Z,99.90
2018-07-05T16:36:06.083Z,99.90
2018-07-05T16:41:21.063Z,99.90
2018-07-05T16:46:35.857Z,99.90
2018-07-05T16:51:50.675Z,99.90
2018-07-05T16:57:07.365Z,99.90
2018-07-05T17:02:24.840Z,99.90
2018-07-05T17:07:39.747Z,99.90
2018-07-05T17:12:56.266Z,99.90
2018-07-05T17:18:12.870Z,99.90
2018-07-05T17:23:27.650Z,99.90
2018-07-05T17:28:44.623Z,99.90
2018-07-05T17:33:59.250Z,99.90
2018-07-05T17:39:14.050Z,99.90
2018-07-05T17:44:29.882Z,99.90
2018-07-05T17:49:44.714Z,98.90
2018-07-05T17:55:03.047Z,96.50
2018-07-05T18:00:21.964Z,96.10
2018-07-05T18:05:36.677Z,96.90
2018-07-05T18:10:51.503Z,96.90
2018-07-05T18:16:06.487Z,97.20
2018-07-05T18:21:21.386Z,97.80
2018-07-05T18:26:36.226Z,98.00
2018-07-05T18:37:01.516Z,98.20
2018-07-05T18:42:16.178Z,99.00
2018-07-05T18:47:30.807Z,99.70
2018-07-05T18:52:45.715Z,99.70
2018-07-05T18:58:00.702Z,99.70
2018-07-05T19:03:15.491Z,99.90
2018-07-05T19:08:32.121Z,99.90
2018-07-05T19:13:47.106Z,99.90
2018-07-05T19:19:02.440Z,99.90
2018-07-05T19:24:20.303Z,99.90
2018-07-05T19:29:35.124Z,99.90
2018-07-05T19:34:50.774Z,99.90
2018-07-05T19:40:06.053Z,99.90
2018-07-05T19:45:21.474Z,99.90
2018-07-05T19:50:38.076Z,99.90
2018-07-05T19:55:53.098Z,99.90
2018-07-05T20:01:15.221Z,99.90
2018-07-05T20:06:32.099Z,99.90
2018-07-05T20:11:53.131Z,99.90
2018-07-05T20:17:09.250Z,99.90
2018-07-05T20:22:25.933Z,99.90
2018-07-05T20:27:43.488Z,99.90
2018-07-05T20:34:05.929Z,99.90
2018-07-05T20:39:20.864Z,99.90
2018-07-05T20:44:35.852Z,99.90
2018-07-05T20:49:51.939Z,99.90
2018-07-05T20:55:06.586Z,99.90
2018-07-05T21:00:22.265Z,99.90
2018-07-05T21:05:39.635Z,99.90
2018-07-05T21:10:55.518Z,99.90
2018-07-05T21:16:12.481Z,99.90
2018-07-05T21:21:27.327Z,99.90
2018-07-05T21:26:42.119Z,99.90
2018-07-05T21:31:56.989Z,99.90
2018-07-05T21:37:11.879Z,99.90
2018-07-05T21:42:26.846Z,99.90
2018-07-05T21:47:41.886Z,99.90
2018-07-05T21:52:56.599Z,99.90
2018-07-05T21:58:12.521Z,99.90
2018-07-05T22:03:27.811Z,99.90
2018-07-05T22:08:42.512Z,99.90
2018-07-05T22:13:57.462Z,99.90
2018-07-05T22:19:17.716Z,99.90
2018-07-05T22:24:38.069Z,99.90
2018-07-05T22:29:58.319Z,99.90
2018-07-05T22:35:13.231Z,99.90
2018-07-05T22:40:30.162Z,99.90
2018-07-05T22:50:02.880Z,99.90
2018-07-05T22:55:18.759Z,99.90
2018-07-05T23:00:33.532Z,99.90
2018-07-05T23:05:49.123Z,99.90
2018-07-05T23:11:03.868Z,99.90
2018-07-05T23:16:19.087Z,99.90
2018-07-05T23:21:33.896Z,99.90
2018-07-05T23:26:49.558Z,99.90
2018-07-05T23:32:04.487Z,99.90
2018-07-05T23:37:19.335Z,99.90
2018-07-05T23:42:33.854Z,99.90
2018-07-05T23:47:48.488Z,99.90
2018-07-05T23:53:03.173Z,99.90
2018-07-05T23:58:19.991Z,99.90
